Aérodrome :
LOGIN :

S'inscrire | Disclaimer

   EN    FR    IT 

 










Légende :    VFR   VFR Marginal   IFR   IFR Intensif   IFR Très Intensif
Visi : 
Plafond : 
>= 8 km
>= 3000ft
5 à 8 km
1000 à 3000 ft
1500m à 5 km
500 à 1000 ft
800 à 1500m
200 à 500 ft
< 800m
< 200 ft
Symboles :   Orages  Brouillard  Fortes neiges  Fortes précipitations  Vent > 20 kt
SIGMETs :   Divers  Orages  Givrage  Turbulence  Onde Orograph.  Cendres Volcan.






- Altitude de l'aérodrome : 26 ft
- Code IATA : BIA


LFKB - Bastia

DERNIER METAR :
  • 070100Z AUTO 22005KT CAVOK 10/08 Q1020 NOSIG

METARs EXPIRÉS :
  • 070030Z AUTO 21006KT CAVOK 10/08 Q1020 NOSIG
  • 070000Z AUTO 22005KT 9999 FEW072 11/08 Q1020 NOSIG
  • 062330Z AUTO 22007KT 9999 BKN074 11/09 Q1020 NOSIG
  • 062300Z AUTO 22006KT 9999 FEW074 11/09 Q1021 NOSIG
  • 062230Z AUTO 22008KT CAVOK 11/09 Q1021 NOSIG

TAF TAF LFKB
Valide du 06 à 21h jusqu'au 07 à 21h UTC


062000Z 0621/0721 23004KT CAVOK TX16/0713Z TN08/0704Z
BECMG 0709/0711 14005KT
ATIS : +33 4 95 59 19 40



MET'MAP, la Météo Aéronautique d'un coup d'oeil ! - Copyright ORBIFLY Décembre 2007 - Disclaimer

ORBIFLY MET'MAP TEAM :

Programmation & Développement : Alexandra Zaïnal
Sur une idée originale de : Baudouin d'Aumeries
Assistance à la programmation : Marc-Olivier Méhu
Soutien technique & logistique : Manuel Goepfert

Contact : metmap@orbifly.com




SOURCES & CREDITS :

   NOAA